Time;durP1;ratioP1;P1;durP2;ratioP2;P2;SDS_P1;SDS_P2;PMS_P1;PMS_P2;Temp;Humidity;BMP_temperature;BMP_pressure;BME280_temperature;BME280_humidity;BME280_pressure;Samples;Min_cycle;Max_cycle;Signal;HPM_P1;HPM_P2
2021/08/04 00:02:13;;;;;;;2.80;2.60;;;;;;;;;;5075029;28;20283;-77
2021/08/04 00:04:39;;;;;;;3.10;2.90;;;;;;;;;;5088766;28;20188;-78
2021/08/04 00:07:05;;;;;;;3.47;2.93;;;;;;;;;;5107055;28;20241;-77
2021/08/04 00:09:31;;;;;;;3.47;2.87;;;;;;;;;;5108180;28;20187;-78
2021/08/04 00:11:57;;;;;;;3.07;2.77;;;;;;;;;;5074675;28;20183;-78
2021/08/04 00:14:23;;;;;;;2.60;2.40;;;;;;;;;;5075678;28;20176;-78
2021/08/04 00:16:49;;;;;;;2.70;2.50;;;;;;;;;;5100951;28;20215;-77
2021/08/04 00:19:15;;;;;;;3.53;2.90;;;;;;;;;;5092074;28;20208;-77
2021/08/04 00:21:41;;;;;;;2.77;2.57;;;;;;;;;;5073986;28;20297;-77
2021/08/04 00:24:07;;;;;;;2.40;2.20;;;;;;;;;;5074391;28;20176;-78
2021/08/04 00:26:33;;;;;;;3.27;2.70;;;;;;;;;;5074117;28;20532;-78
2021/08/04 00:28:59;;;;;;;2.67;2.47;;;;;;;;;;5074409;28;20500;-77
2021/08/04 00:31:25;;;;;;;4.13;3.17;;;;;;;;;;5092255;28;20267;-77
2021/08/04 00:33:51;;;;;;;2.70;2.50;;;;;;;;;;5092503;28;20613;-78
2021/08/04 00:36:17;;;;;;;3.27;2.57;;;;;;;;;;5073199;28;20179;-77
2021/08/04 00:38:45;;;;;;;2.93;2.73;;;;;;;;;;5092276;28;20199;-77
2021/08/04 00:41:11;;;;;;;3.50;2.80;;;;;;;;;;5073753;28;20705;-78
2021/08/04 00:43:37;;;;;;;2.93;2.60;;;;;;;;;;5072849;28;20194;-78
2021/08/04 00:46:03;;;;;;;3.27;2.53;;;;;;;;;;5070115;28;20182;-77
2021/08/04 00:48:29;;;;;;;2.90;2.60;;;;;;;;;;5073295;28;20179;-78
2021/08/04 00:50:55;;;;;;;3.87;2.67;;;;;;;;;;5073002;28;20175;-77
2021/08/04 00:53:22;;;;;;;2.70;2.50;;;;;;;;;;5073942;28;20175;-77
2021/08/04 00:55:49;;;;;;;2.60;2.40;;;;;;;;;;5091731;28;20634;-77
2021/08/04 00:58:16;;;;;;;3.10;2.80;;;;;;;;;;5107048;28;20230;-78
2021/08/04 01:00:46;;;;;;;8.80;3.37;;;;;;;;;;5065701;28;20694;-78
2021/08/04 01:03:17;;;;;;;3.20;2.63;;;;;;;;;;5081914;28;20184;-77
2021/08/04 01:05:54;;;;;;;4.17;2.73;;;;;;;;;;5068602;28;20198;-75
2021/08/04 01:08:23;;;;;;;2.83;2.60;;;;;;;;;;5072228;28;20208;-76
2021/08/04 01:10:53;;;;;;;4.30;2.27;;;;;;;;;;5090781;28;20171;-79
2021/08/04 01:13:22;;;;;;;2.87;2.63;;;;;;;;;;5087414;28;20176;-76
2021/08/04 01:15:54;;;;;;;2.83;2.50;;;;;;;;;;5072452;28;20305;-76
2021/08/04 01:18:26;;;;;;;3.23;2.93;;;;;;;;;;5072479;28;20618;-76
2021/08/04 01:20:52;;;;;;;2.70;2.50;;;;;;;;;;5071940;28;20264;-76
2021/08/04 01:23:32;;;;;;;2.83;2.63;;;;;;;;;;5091078;28;20252;-76
2021/08/04 01:26:17;;;;;;;5.30;3.10;;;;;;;;;;5071954;28;20499;-76
2021/08/04 01:28:46;;;;;;;3.57;2.70;;;;;;;;;;5070734;28;20184;-76
2021/08/04 01:31:13;;;;;;;4.33;2.20;;;;;;;;;;5068820;28;20402;-76
2021/08/04 01:33:41;;;;;;;3.27;2.43;;;;;;;;;;5087076;28;20190;-76
2021/08/04 01:36:08;;;;;;;4.47;2.70;;;;;;;;;;5069962;28;20205;-76
2021/08/04 01:38:35;;;;;;;2.80;2.60;;;;;;;;;;5098856;28;20191;-77
2021/08/04 01:41:01;;;;;;;7.33;2.57;;;;;;;;;;5071610;28;20286;-77
2021/08/04 01:43:29;;;;;;;3.43;2.50;;;;;;;;;;5071579;28;20244;-78
2021/08/04 01:45:56;;;;;;;3.77;3.07;;;;;;;;;;5090077;28;20189;-76
2021/08/04 01:48:23;;;;;;;3.13;2.70;;;;;;;;;;5086603;28;20309;-75
2021/08/04 01:50:49;;;;;;;2.60;2.40;;;;;;;;;;5089451;28;20195;-77
2021/08/04 01:53:16;;;;;;;3.37;2.60;;;;;;;;;;5088051;28;20179;-79
2021/08/04 01:55:43;;;;;;;2.43;2.23;;;;;;;;;;5069239;28;20184;-77
2021/08/04 01:58:09;;;;;;;2.73;2.53;;;;;;;;;;5071754;28;20219;-79
2021/08/04 02:00:35;;;;;;;2.40;2.20;;;;;;;;;;5105993;28;20211;-77
2021/08/04 02:03:01;;;;;;;2.90;2.50;;;;;;;;;;5090235;28;20291;-79
2021/08/04 02:05:27;;;;;;;2.83;2.63;;;;;;;;;;5071234;28;20537;-76
2021/08/04 02:07:53;;;;;;;3.55;2.70;;;;;;;;;;5067027;28;20776;-77
2021/08/04 02:10:23;;;;;;;3.17;2.87;;;;;;;;;;5068564;28;20176;-77
2021/08/04 02:12:52;;;;;;;2.30;2.10;;;;;;;;;;5071707;28;20211;-77
2021/08/04 02:15:19;;;;;;;3.33;3.03;;;;;;;;;;5071584;28;20667;-76
2021/08/04 02:17:46;;;;;;;2.93;2.20;;;;;;;;;;5071284;28;20198;-77
2021/08/04 02:20:27;;;;;;;3.50;2.40;;;;;;;;;;5089154;28;20241;-78
2021/08/04 02:23:04;;;;;;;2.67;2.47;;;;;;;;;;5089687;28;20299;-78
2021/08/04 02:25:33;;;;;;;2.70;2.50;;;;;;;;;;5089876;28;20303;-78
2021/08/04 02:28:00;;;;;;;2.80;2.60;;;;;;;;;;5105682;28;20666;-79
2021/08/04 02:30:28;;;;;;;2.87;2.60;;;;;;;;;;5090093;28;20247;-79
2021/08/04 02:32:54;;;;;;;2.60;2.40;;;;;;;;;;5070100;28;20186;-79
2021/08/04 02:35:20;;;;;;;2.77;2.20;;;;;;;;;;5089217;28;20168;-79
2021/08/04 02:37:47;;;;;;;4.80;2.23;;;;;;;;;;5089770;28;20682;-78
2021/08/04 02:40:14;;;;;;;2.50;2.13;;;;;;;;;;5089777;28;20230;-78
2021/08/04 02:42:40;;;;;;;3.20;2.90;;;;;;;;;;5105457;28;20248;-78
2021/08/04 02:45:06;;;;;;;3.67;2.70;;;;;;;;;;5071777;28;20684;-78
2021/08/04 02:47:33;;;;;;;4.10;2.23;;;;;;;;;;5071867;28;20207;-79
2021/08/04 02:50:00;;;;;;;2.70;2.50;;;;;;;;;;5071186;28;20518;-78
2021/08/04 02:52:26;;;;;;;2.60;2.20;;;;;;;;;;5089941;28;20191;-78
2021/08/04 02:54:52;;;;;;;5.50;2.90;;;;;;;;;;5090362;28;20258;-78
2021/08/04 02:57:18;;;;;;;2.97;2.60;;;;;;;;;;5082978;28;20324;-77
2021/08/04 02:59:44;;;;;;;2.77;2.57;;;;;;;;;;5032234;28;20283;-78
2021/08/04 03:02:10;;;;;;;2.83;2.60;;;;;;;;;;5071990;28;20192;-76
2021/08/04 03:04:38;;;;;;;4.53;2.47;;;;;;;;;;5068918;28;20634;-79
2021/08/04 03:07:04;;;;;;;3.50;2.20;;;;;;;;;;5069155;28;20209;-77
2021/08/04 03:09:30;;;;;;;2.30;2.10;;;;;;;;;;5054956;28;20189;-79
2021/08/04 03:11:56;;;;;;;5.23;2.47;;;;;;;;;;5055720;28;20205;-78
2021/08/04 03:14:22;;;;;;;2.70;2.47;;;;;;;;;;5055377;28;20269;-78
2021/08/04 03:16:48;;;;;;;3.27;2.13;;;;;;;;;;5054992;28;20190;-76
2021/08/04 03:19:15;;;;;;;2.53;2.33;;;;;;;;;;5054491;28;20252;-75
2021/08/04 03:21:41;;;;;;;2.50;2.30;;;;;;;;;;5053816;28;20200;-76
2021/08/04 03:24:07;;;;;;;4.03;2.47;;;;;;;;;;5054088;28;20223;-76
2021/08/04 03:26:34;;;;;;;2.60;2.40;;;;;;;;;;5071934;28;20657;-78
2021/08/04 03:29:00;;;;;;;3.00;2.80;;;;;;;;;;5073167;28;20187;-76
2021/08/04 03:31:26;;;;;;;3.00;2.37;;;;;;;;;;5053576;28;20200;-76
2021/08/04 03:33:52;;;;;;;3.10;2.50;;;;;;;;;;5054671;28;20630;-76
2021/08/04 03:36:19;;;;;;;2.60;2.27;;;;;;;;;;5052896;28;20234;-76
2021/08/04 03:38:45;;;;;;;2.43;2.23;;;;;;;;;;5053845;28;20191;-76
2021/08/04 03:41:11;;;;;;;4.60;2.40;;;;;;;;;;5053301;28;20207;-78
2021/08/04 03:43:37;;;;;;;3.03;2.73;;;;;;;;;;5054393;28;20172;-76
2021/08/04 03:46:03;;;;;;;2.90;2.27;;;;;;;;;;5053699;28;20240;-76
2021/08/04 03:48:29;;;;;;;2.50;2.30;;;;;;;;;;5072072;28;20233;-76
2021/08/04 03:50:55;;;;;;;3.07;2.60;;;;;;;;;;5071386;28;20176;-76
2021/08/04 03:53:21;;;;;;;2.63;2.33;;;;;;;;;;5053514;28;20209;-76
2021/08/04 03:55:47;;;;;;;2.23;2.03;;;;;;;;;;5072156;28;20229;-79
2021/08/04 03:58:13;;;;;;;2.57;2.37;;;;;;;;;;5053155;28;20258;-76
2021/08/04 04:00:39;;;;;;;3.07;2.77;;;;;;;;;;5071655;28;20213;-76
2021/08/04 04:03:05;;;;;;;2.70;2.50;;;;;;;;;;5071559;28;20186;-78
2021/08/04 04:05:31;;;;;;;2.80;2.43;;;;;;;;;;5044494;28;20181;-76
2021/08/04 04:07:57;;;;;;;2.47;2.23;;;;;;;;;;5043474;28;20249;-77
2021/08/04 04:10:23;;;;;;;4.07;2.53;;;;;;;;;;5053113;28;20261;-76
2021/08/04 04:12:49;;;;;;;2.83;2.53;;;;;;;;;;5053345;28;20188;-76
2021/08/04 04:15:15;;;;;;;4.13;2.83;;;;;;;;;;5053302;28;20180;-76
2021/08/04 04:17:41;;;;;;;2.50;2.30;;;;;;;;;;5053014;28;20580;-76
2021/08/04 04:20:08;;;;;;;2.90;2.70;;;;;;;;;;5069501;28;20172;-77
2021/08/04 04:22:34;;;;;;;2.70;2.50;;;;;;;;;;5053645;28;20210;-76
2021/08/04 04:25:00;;;;;;;3.30;2.47;;;;;;;;;;5044138;28;20188;-76
2021/08/04 04:27:26;;;;;;;4.17;2.60;;;;;;;;;;5053976;28;20209;-77
2021/08/04 04:29:52;;;;;;;3.43;2.90;;;;;;;;;;5042145;28;20180;-76
2021/08/04 04:32:18;;;;;;;2.37;2.17;;;;;;;;;;5056599;28;20188;-76
2021/08/04 04:34:44;;;;;;;2.53;2.33;;;;;;;;;;5052572;28;20189;-76
2021/08/04 04:37:10;;;;;;;3.77;2.30;;;;;;;;;;5049871;28;20669;-76
2021/08/04 04:39:36;;;;;;;2.33;2.17;;;;;;;;;;5051440;28;20195;-76
2021/08/04 04:42:02;;;;;;;2.97;2.50;;;;;;;;;;5053867;28;20212;-76
2021/08/04 04:44:28;;;;;;;3.50;2.23;;;;;;;;;;5070993;28;20172;-76
2021/08/04 04:46:54;;;;;;;2.40;2.20;;;;;;;;;;5069504;28;20204;-77
2021/08/04 04:49:20;;;;;;;5.23;2.13;;;;;;;;;;5070414;28;20581;-76
2021/08/04 04:51:47;;;;;;;3.17;2.37;;;;;;;;;;5052726;28;20184;-77
2021/08/04 04:54:13;;;;;;;4.27;3.83;;;;;;;;;;5072293;28;20544;-84
2021/08/04 04:56:39;;;;;;;4.23;3.83;;;;;;;;;;5041778;28;20211;-84
2021/08/04 04:59:05;;;;;;;9.07;4.03;;;;;;;;;;5073853;28;20230;-85
2021/08/04 05:01:31;;;;;;;7.87;4.57;;;;;;;;;;5073820;28;20204;-89
2021/08/04 05:03:57;;;;;;;4.53;4.07;;;;;;;;;;5073526;28;20267;-89
2021/08/04 05:06:25;;;;;;;5.07;3.70;;;;;;;;;;5072426;28;20561;-90
2021/08/04 05:08:51;;;;;;;3.53;3.20;;;;;;;;;;5076663;28;20174;-79
2021/08/04 05:11:17;;;;;;;4.60;3.43;;;;;;;;;;5072751;28;20186;-79
2021/08/04 05:13:43;;;;;;;4.23;3.80;;;;;;;;;;5075068;28;20179;-79
2021/08/04 05:16:09;;;;;;;4.27;3.67;;;;;;;;;;5092825;28;20201;-79
2021/08/04 05:18:35;;;;;;;4.50;3.50;;;;;;;;;;5075918;28;20179;-79
2021/08/04 05:21:01;;;;;;;3.73;3.17;;;;;;;;;;5110220;28;20203;-80
2021/08/04 05:23:27;;;;;;;3.70;3.17;;;;;;;;;;5111314;28;20167;-78
2021/08/04 05:25:53;;;;;;;3.47;2.90;;;;;;;;;;5110950;28;20194;-78
2021/08/04 05:28:19;;;;;;;3.70;3.30;;;;;;;;;;5095934;28;20602;-78
2021/08/04 05:30:45;;;;;;;3.87;3.53;;;;;;;;;;5077438;28;20191;-79
2021/08/04 05:33:11;;;;;;;5.27;3.20;;;;;;;;;;5077720;28;20192;-78
2021/08/04 05:35:37;;;;;;;3.27;2.80;;;;;;;;;;5095518;28;20232;-79
2021/08/04 05:38:03;;;;;;;3.20;2.90;;;;;;;;;;5076979;28;20194;-78
2021/08/04 05:40:29;;;;;;;3.27;2.80;;;;;;;;;;5077390;28;20252;-78
2021/08/04 05:42:55;;;;;;;2.87;2.60;;;;;;;;;;5077560;28;20865;-78
2021/08/04 05:45:21;;;;;;;3.43;3.13;;;;;;;;;;5076539;28;20516;-78
2021/08/04 05:47:47;;;;;;;2.73;2.53;;;;;;;;;;5077163;28;20239;-78
2021/08/04 05:50:13;;;;;;;3.10;2.80;;;;;;;;;;5094680;28;20167;-78
2021/08/04 05:52:39;;;;;;;3.60;3.30;;;;;;;;;;5094856;28;20226;-78
2021/08/04 05:55:06;;;;;;;2.70;2.43;;;;;;;;;;5076080;28;20259;-78
2021/08/04 05:57:32;;;;;;;3.07;2.80;;;;;;;;;;5076854;28;20257;-78
2021/08/04 05:59:58;;;;;;;3.90;2.97;;;;;;;;;;5074029;28;20635;-79
2021/08/04 06:02:24;;;;;;;3.43;2.37;;;;;;;;;;5091055;28;20211;-78
2021/08/04 06:04:50;;;;;;;6.10;3.10;;;;;;;;;;5089595;28;20178;-78
2021/08/04 06:07:16;;;;;;;3.30;3.00;;;;;;;;;;5074898;28;20190;-78
2021/08/04 06:09:42;;;;;;;4.53;3.00;;;;;;;;;;5090095;28;20295;-78
2021/08/04 06:12:09;;;;;;;3.60;3.30;;;;;;;;;;5090070;28;20565;-78
2021/08/04 06:14:36;;;;;;;2.90;2.70;;;;;;;;;;5108214;28;20201;-79
2021/08/04 06:17:02;;;;;;;3.07;2.80;;;;;;;;;;5094986;28;20688;-79
2021/08/04 06:19:28;;;;;;;3.63;3.07;;;;;;;;;;5075947;28;20220;-78
2021/08/04 06:21:54;;;;;;;2.97;2.67;;;;;;;;;;5077233;28;20211;-78
2021/08/04 06:24:20;;;;;;;3.00;2.70;;;;;;;;;;5077541;28;20179;-79
2021/08/04 06:26:46;;;;;;;4.90;3.00;;;;;;;;;;5077391;28;20263;-78
2021/08/04 06:29:12;;;;;;;3.27;2.90;;;;;;;;;;5077446;28;20206;-78
2021/08/04 06:31:39;;;;;;;4.53;3.10;;;;;;;;;;5090016;28;20171;-78
2021/08/04 06:34:05;;;;;;;4.23;2.70;;;;;;;;;;5087921;28;20176;-78
2021/08/04 06:36:31;;;;;;;3.63;3.30;;;;;;;;;;5091610;28;20179;-78
2021/08/04 06:38:57;;;;;;;2.83;2.63;;;;;;;;;;5108273;28;20171;-78
2021/08/04 06:41:23;;;;;;;3.27;2.93;;;;;;;;;;5091518;28;20200;-78
2021/08/04 06:43:49;;;;;;;3.60;3.30;;;;;;;;;;5090530;28;20186;-78
2021/08/04 06:46:15;;;;;;;3.70;3.10;;;;;;;;;;5091829;28;20204;-78
2021/08/04 06:48:42;;;;;;;3.70;3.10;;;;;;;;;;5090853;28;20168;-78
2021/08/04 06:51:08;;;;;;;4.53;3.20;;;;;;;;;;5089160;28;20176;-78
2021/08/04 06:53:34;;;;;;;3.13;2.90;;;;;;;;;;5089369;28;20275;-78
2021/08/04 06:56:00;;;;;;;2.97;2.73;;;;;;;;;;5087205;28;20177;-78
2021/08/04 06:58:26;;;;;;;5.13;2.93;;;;;;;;;;5082017;28;20535;-79
2021/08/04 07:00:52;;;;;;;2.93;2.60;;;;;;;;;;5081601;28;20183;-79
2021/08/04 07:03:18;;;;;;;3.30;2.93;;;;;;;;;;5083379;28;20181;-79
2021/08/04 07:05:46;;;;;;;3.23;2.93;;;;;;;;;;5082359;28;20188;-79
2021/08/04 07:08:17;;;;;;;3.40;3.10;;;;;;;;;;5082679;28;20182;-79
2021/08/04 07:10:43;;;;;;;4.20;3.33;;;;;;;;;;5081608;28;20271;-79
2021/08/04 07:13:09;;;;;;;2.80;2.60;;;;;;;;;;5081758;28;20189;-78
2021/08/04 07:15:35;;;;;;;4.20;3.33;;;;;;;;;;5082775;28;20168;-79
2021/08/04 07:18:04;;;;;;;3.80;2.90;;;;;;;;;;5080873;28;20669;-78
2021/08/04 07:20:33;;;;;;;3.50;3.20;;;;;;;;;;5080057;28;20185;-79
2021/08/04 07:22:59;;;;;;;4.33;3.67;;;;;;;;;;5079895;28;20204;-78
2021/08/04 07:25:25;;;;;;;3.47;3.17;;;;;;;;;;5081585;28;20248;-79
2021/08/04 07:27:51;;;;;;;3.83;3.53;;;;;;;;;;5080576;28;20188;-78
2021/08/04 07:30:17;;;;;;;3.73;2.80;;;;;;;;;;5079998;28;20174;-78
2021/08/04 07:32:43;;;;;;;4.27;3.53;;;;;;;;;;5079463;28;20194;-79
2021/08/04 07:35:09;;;;;;;3.90;3.50;;;;;;;;;;5079134;28;20219;-78
2021/08/04 07:37:36;;;;;;;3.67;2.87;;;;;;;;;;5078664;28;20789;-79
2021/08/04 07:40:03;;;;;;;4.23;3.30;;;;;;;;;;5078465;28;20581;-78
2021/08/04 07:42:29;;;;;;;4.60;3.43;;;;;;;;;;5078093;28;20196;-79
2021/08/04 07:44:55;;;;;;;3.80;3.40;;;;;;;;;;5077639;28;20460;-78
2021/08/04 07:47:21;;;;;;;4.43;2.80;;;;;;;;;;5077388;28;20180;-78
2021/08/04 07:49:47;;;;;;;3.67;3.27;;;;;;;;;;5076168;28;20609;-78
2021/08/04 07:52:13;;;;;;;3.33;3.03;;;;;;;;;;5076158;28;20274;-78
2021/08/04 07:54:39;;;;;;;3.33;3.03;;;;;;;;;;5075911;28;20212;-78
2021/08/04 07:57:06;;;;;;;3.50;3.20;;;;;;;;;;5079291;28;20223;-78
2021/08/04 07:59:32;;;;;;;4.30;3.37;;;;;;;;;;5079565;28;20186;-79
2021/08/04 08:01:58;;;;;;;3.47;2.90;;;;;;;;;;5080452;28;20191;-78
2021/08/04 08:04:24;;;;;;;3.50;3.20;;;;;;;;;;5079677;28;20703;-79
2021/08/04 08:06:50;;;;;;;3.97;3.17;;;;;;;;;;5098125;28;20188;-79
2021/08/04 08:09:21;;;;;;;4.17;3.43;;;;;;;;;;5098339;28;20287;-79
2021/08/04 08:11:47;;;;;;;4.10;3.40;;;;;;;;;;5080094;28;20171;-79
2021/08/04 08:14:13;;;;;;;6.27;3.40;;;;;;;;;;5080464;28;20187;-79
2021/08/04 08:16:39;;;;;;;4.20;3.37;;;;;;;;;;5081153;28;20175;-79
2021/08/04 08:19:05;;;;;;;3.90;3.50;;;;;;;;;;5080427;28;20598;-79
2021/08/04 08:21:31;;;;;;;3.50;3.20;;;;;;;;;;5098292;28;20207;-79
2021/08/04 08:23:57;;;;;;;4.10;3.67;;;;;;;;;;5079911;28;20290;-79
2021/08/04 08:26:24;;;;;;;3.90;3.57;;;;;;;;;;5078912;28;20168;-78
2021/08/04 08:28:51;;;;;;;3.70;3.40;;;;;;;;;;5098312;28;20262;-79
2021/08/04 08:31:17;;;;;;;3.93;3.20;;;;;;;;;;5098205;28;20246;-79
2021/08/04 08:33:43;;;;;;;3.50;3.20;;;;;;;;;;5079981;28;20203;-78
2021/08/04 08:36:09;;;;;;;3.40;3.10;;;;;;;;;;5097348;28;20172;-78
2021/08/04 08:38:36;;;;;;;4.00;3.60;;;;;;;;;;5078989;28;20219;-79
2021/08/04 08:41:03;;;;;;;4.20;3.80;;;;;;;;;;5078900;28;20207;-79
2021/08/04 08:43:29;;;;;;;5.37;4.77;;;;;;;;;;5079104;28;20653;-79
2021/08/04 08:45:56;;;;;;;4.33;3.93;;;;;;;;;;5078381;28;20260;-79
2021/08/04 08:48:22;;;;;;;4.07;3.67;;;;;;;;;;5078519;28;20172;-79
2021/08/04 08:50:49;;;;;;;3.63;3.33;;;;;;;;;;5078589;28;20263;-78
2021/08/04 08:53:15;;;;;;;3.30;3.00;;;;;;;;;;5078207;28;20180;-79
2021/08/04 08:55:42;;;;;;;4.83;3.87;;;;;;;;;;5096608;28;20539;-79
2021/08/04 08:58:10;;;;;;;4.57;3.30;;;;;;;;;;5074450;28;20311;-79
2021/08/04 09:00:36;;;;;;;5.73;3.53;;;;;;;;;;5074339;28;20176;-79
2021/08/04 09:03:02;;;;;;;4.13;3.73;;;;;;;;;;5074921;28;20463;-79
2021/08/04 09:05:28;;;;;;;4.23;3.60;;;;;;;;;;5074586;28;20168;-80
2021/08/04 09:07:54;;;;;;;4.80;3.60;;;;;;;;;;5075581;28;20193;-80
2021/08/04 09:10:31;;;;;;;3.63;3.33;;;;;;;;;;5075542;28;20173;-81
2021/08/04 09:12:58;;;;;;;4.00;3.57;;;;;;;;;;5075529;28;20591;-80
2021/08/04 09:15:28;;;;;;;4.00;3.60;;;;;;;;;;5074253;28;20180;-80
2021/08/04 09:17:58;;;;;;;4.40;3.37;;;;;;;;;;5070661;28;20564;-80
2021/08/04 09:20:27;;;;;;;5.97;3.73;;;;;;;;;;5052862;28;20584;-80
2021/08/04 09:22:59;;;;;;;3.80;3.23;;;;;;;;;;5059526;28;20208;-81
2021/08/04 09:25:25;;;;;;;4.90;3.50;;;;;;;;;;5074569;28;20165;-80
2021/08/04 09:27:52;;;;;;;3.80;3.40;;;;;;;;;;5075515;28;20258;-81
2021/08/04 09:30:25;;;;;;;3.50;3.20;;;;;;;;;;5072806;28;20172;-80
2021/08/04 09:32:52;;;;;;;4.47;3.27;;;;;;;;;;5072579;28;20177;-81
2021/08/04 09:35:23;;;;;;;3.23;2.87;;;;;;;;;;5073624;28;20507;-78
2021/08/04 09:37:50;;;;;;;3.67;3.10;;;;;;;;;;5073806;28;20231;-81
2021/08/04 09:40:19;;;;;;;4.20;3.20;;;;;;;;;;5072085;28;20281;-78
2021/08/04 09:42:49;;;;;;;3.20;2.90;;;;;;;;;;5072621;28;20201;-78
2021/08/04 09:45:17;;;;;;;4.40;3.10;;;;;;;;;;5074389;28;20315;-78
2021/08/04 09:47:56;;;;;;;4.13;2.80;;;;;;;;;;5075686;28;20238;-78
2021/08/04 09:50:22;;;;;;;3.00;2.80;;;;;;;;;;5072266;28;20329;-78
2021/08/04 09:52:52;;;;;;;8.67;3.33;;;;;;;;;;5073290;28;20184;-78
2021/08/04 09:55:18;;;;;;;3.83;3.00;;;;;;;;;;5072562;28;20225;-78
2021/08/04 09:57:46;;;;;;;3.50;3.20;;;;;;;;;;5082952;28;20212;-79
2021/08/04 10:00:13;;;;;;;3.13;2.90;;;;;;;;;;5074194;28;20191;-78
2021/08/04 10:02:39;;;;;;;3.10;2.77;;;;;;;;;;5074325;28;20257;-78
2021/08/04 10:05:19;;;;;;;3.03;2.73;;;;;;;;;;5075217;28;20577;-78
2021/08/04 10:08:04;;;;;;;3.17;2.83;;;;;;;;;;5076541;28;20523;-78
2021/08/04 10:10:50;;;;;;;5.90;2.90;;;;;;;;;;5075997;28;20681;-78
2021/08/04 10:13:18;;;;;;;3.43;2.93;;;;;;;;;;5071956;28;20180;-78
2021/08/04 10:15:46;;;;;;;3.60;2.90;;;;;;;;;;5072508;28;20321;-78
2021/08/04 10:18:13;;;;;;;5.37;4.23;;;;;;;;;;5072174;28;20586;-79
2021/08/04 10:20:39;;;;;;;4.07;2.97;;;;;;;;;;5071637;28;20196;-79
2021/08/04 10:23:06;;;;;;;3.13;2.93;;;;;;;;;;5075787;28;20252;-79
2021/08/04 10:25:33;;;;;;;3.63;3.20;;;;;;;;;;5093817;28;20167;-79
2021/08/04 10:28:01;;;;;;;5.07;3.33;;;;;;;;;;5093978;28;20186;-78
2021/08/04 10:30:28;;;;;;;3.60;3.30;;;;;;;;;;5075847;28;20330;-79
2021/08/04 10:32:54;;;;;;;4.30;3.90;;;;;;;;;;5094667;28;20200;-78
2021/08/04 10:35:21;;;;;;;3.77;3.47;;;;;;;;;;5093686;28;20231;-79
2021/08/04 10:37:48;;;;;;;5.53;3.87;;;;;;;;;;5075522;28;20196;-78
2021/08/04 10:40:15;;;;;;;4.60;4.07;;;;;;;;;;5076110;28;20188;-78
2021/08/04 10:42:42;;;;;;;3.70;3.40;;;;;;;;;;5075376;28;20207;-78
2021/08/04 10:45:23;;;;;;;4.20;3.87;;;;;;;;;;5075438;28;20588;-78
2021/08/04 10:47:50;;;;;;;4.97;4.00;;;;;;;;;;5075594;28;20232;-78
2021/08/04 10:50:17;;;;;;;4.20;3.80;;;;;;;;;;5093122;28;20171;-78
2021/08/04 10:52:58;;;;;;;5.13;4.03;;;;;;;;;;5075383;28;20185;-78
2021/08/04 10:55:28;;;;;;;4.80;4.07;;;;;;;;;;5075304;28;20189;-78
2021/08/04 10:58:04;;;;;;;4.70;3.90;;;;;;;;;;5075227;28;20287;-78
2021/08/04 11:00:30;;;;;;;4.00;3.60;;;;;;;;;;5075194;28;20182;-79
2021/08/04 11:02:56;;;;;;;6.37;3.90;;;;;;;;;;5072318;28;20604;-79
2021/08/04 11:05:22;;;;;;;3.63;3.33;;;;;;;;;;5071595;28;20279;-79
2021/08/04 11:08:07;;;;;;;3.97;3.50;;;;;;;;;;5073209;28;20904;-79
2021/08/04 11:10:39;;;;;;;3.87;3.47;;;;;;;;;;5072641;28;20290;-79
2021/08/04 11:13:05;;;;;;;3.80;3.50;;;;;;;;;;5077378;28;20176;-79
2021/08/04 11:15:32;;;;;;;3.57;3.27;;;;;;;;;;5093089;28;20168;-81
2021/08/04 11:18:15;;;;;;;6.00;3.67;;;;;;;;;;5093118;28;20180;-81
2021/08/04 11:21:00;;;;;;;3.97;3.63;;;;;;;;;;5074546;28;20590;-79
2021/08/04 11:23:45;;;;;;;6.03;3.57;;;;;;;;;;5093649;28;20191;-81
2021/08/04 11:26:28;;;;;;;7.50;3.67;;;;;;;;;;5075152;28;20278;-81
2021/08/04 11:28:55;;;;;;;3.73;3.20;;;;;;;;;;5094747;28;20218;-81
2021/08/04 11:31:21;;;;;;;4.70;3.53;;;;;;;;;;5077709;28;20172;-81
2021/08/04 11:33:48;;;;;;;4.88;4.10;;;;;;;;;;5073199;28;20412;-81
2021/08/04 11:36:22;;;;;;;4.80;3.63;;;;;;;;;;5073799;28;20185;-81
2021/08/04 11:38:52;;;;;;;3.67;3.37;;;;;;;;;;5076829;28;20532;-80
2021/08/04 11:41:20;;;;;;;4.00;3.70;;;;;;;;;;5077054;28;20203;-80
2021/08/04 11:43:46;;;;;;;3.73;3.43;;;;;;;;;;5075589;28;20650;-81
2021/08/04 11:46:28;;;;;;;4.17;3.87;;;;;;;;;;5076946;28;20233;-81
2021/08/04 11:48:54;;;;;;;4.63;4.07;;;;;;;;;;5078888;28;20721;-80
2021/08/04 11:51:30;;;;;;;4.50;3.63;;;;;;;;;;5078263;28;20186;-80
2021/08/04 11:53:57;;;;;;;4.00;3.70;;;;;;;;;;5096766;28;20476;-80
2021/08/04 11:56:23;;;;;;;4.70;4.30;;;;;;;;;;5078712;28;20217;-80
2021/08/04 11:58:49;;;;;;;4.70;4.30;;;;;;;;;;5087298;28;20260;-80
2021/08/04 12:01:19;;;;;;;4.40;4.03;;;;;;;;;;5058856;28;20231;-80
2021/08/04 12:03:46;;;;;;;4.87;4.47;;;;;;;;;;5077332;28;20209;-80
2021/08/04 12:06:18;;;;;;;3.77;3.47;;;;;;;;;;5076367;28;20188;-81
2021/08/04 12:08:44;;;;;;;4.47;4.03;;;;;;;;;;5077091;28;20198;-80
2021/08/04 12:11:11;;;;;;;4.30;3.90;;;;;;;;;;5058147;28;20339;-81
2021/08/04 12:13:37;;;;;;;5.13;4.17;;;;;;;;;;5060609;28;20187;-81
2021/08/04 12:16:03;;;;;;;4.37;3.97;;;;;;;;;;5053767;28;20189;-81
2021/08/04 12:18:29;;;;;;;4.43;3.90;;;;;;;;;;5073787;28;20191;-81
2021/08/04 12:20:56;;;;;;;4.50;4.10;;;;;;;;;;5068807;28;20248;-81
2021/08/04 12:23:25;;;;;;;5.60;3.90;;;;;;;;;;5051974;28;20181;-80
2021/08/04 12:25:58;;;;;;;4.23;3.57;;;;;;;;;;5073827;28;20175;-80
2021/08/04 12:28:29;;;;;;;4.53;3.97;;;;;;;;;;5058883;28;20580;-80
2021/08/04 12:30:55;;;;;;;5.77;3.77;;;;;;;;;;5058966;28;20197;-80
2021/08/04 12:33:26;;;;;;;6.10;4.20;;;;;;;;;;5065242;28;20479;-81
2021/08/04 12:36:08;;;;;;;3.97;3.67;;;;;;;;;;5081487;28;20828;-81
2021/08/04 12:38:35;;;;;;;4.23;3.93;;;;;;;;;;5078241;28;20169;-80
2021/08/04 12:41:01;;;;;;;4.40;4.00;;;;;;;;;;5057334;28;20169;-80
2021/08/04 12:43:32;;;;;;;4.57;4.17;;;;;;;;;;5058547;28;20543;-81
2021/08/04 12:45:59;;;;;;;4.03;3.73;;;;;;;;;;5058387;28;20172;-78
2021/08/04 12:48:54;;;;;;;4.13;3.73;;;;;;;;;;5058161;28;20178;-80
2021/08/04 12:51:22;;;;;;;4.37;4.00;;;;;;;;;;5046179;28;20214;-80
2021/08/04 12:54:14;;;;;;;3.97;3.57;;;;;;;;;;5074037;28;20171;-80
2021/08/04 12:56:41;;;;;;;4.37;4.07;;;;;;;;;;5058866;28;20197;-80
2021/08/04 12:59:08;;;;;;;5.20;4.70;;;;;;;;;;5057276;28;20245;-80
2021/08/04 13:01:38;;;;;;;3.97;3.67;;;;;;;;;;5055934;28;20200;-81
2021/08/04 13:04:21;;;;;;;4.90;3.83;;;;;;;;;;5056972;28;20177;-81
2021/08/04 13:06:55;;;;;;;4.00;3.70;;;;;;;;;;5056598;28;20296;-81
2021/08/04 13:09:22;;;;;;;4.37;3.97;;;;;;;;;;5056954;28;20642;-81
2021/08/04 13:11:48;;;;;;;4.53;4.13;;;;;;;;;;5070818;28;20185;-80
2021/08/04 13:14:15;;;;;;;5.53;4.53;;;;;;;;;;5056570;28;20283;-81
2021/08/04 13:16:42;;;;;;;4.60;4.20;;;;;;;;;;5057042;28;20180;-81
2021/08/04 13:19:24;;;;;;;4.80;4.40;;;;;;;;;;5056845;28;20311;-80
2021/08/04 13:22:06;;;;;;;4.63;4.33;;;;;;;;;;5074236;28;20203;-81
2021/08/04 13:24:36;;;;;;;4.47;4.07;;;;;;;;;;5058678;28;20652;-81
2021/08/04 13:27:22;;;;;;;4.03;3.73;;;;;;;;;;5056173;28;20173;-80
2021/08/04 13:29:48;;;;;;;4.93;4.53;;;;;;;;;;5074146;28;20230;-80
2021/08/04 13:32:15;;;;;;;4.50;4.10;;;;;;;;;;5056652;28;20237;-81
2021/08/04 13:34:41;;;;;;;5.83;4.50;;;;;;;;;;5074160;28;20211;-80
2021/08/04 13:37:07;;;;;;;5.20;4.30;;;;;;;;;;5054385;28;20655;-80
2021/08/04 13:39:33;;;;;;;5.77;4.27;;;;;;;;;;5055656;28;20181;-80
2021/08/04 13:41:59;;;;;;;4.20;3.90;;;;;;;;;;5057137;28;20639;-81
2021/08/04 13:44:25;;;;;;;5.07;4.13;;;;;;;;;;5057423;28;20181;-81
2021/08/04 13:46:51;;;;;;;4.43;4.03;;;;;;;;;;5057000;28;20179;-81
2021/08/04 13:49:17;;;;;;;4.13;3.83;;;;;;;;;;5056529;28;20173;-80
2021/08/04 13:51:43;;;;;;;3.87;3.57;;;;;;;;;;5074444;28;20261;-81
2021/08/04 13:54:09;;;;;;;4.50;4.10;;;;;;;;;;5056835;28;20224;-81
2021/08/04 13:56:35;;;;;;;5.17;4.10;;;;;;;;;;5055835;28;20189;-81
2021/08/04 13:59:01;;;;;;;6.17;4.60;;;;;;;;;;5054913;28;20181;-80
2021/08/04 14:01:27;;;;;;;5.20;4.23;;;;;;;;;;5054701;28;20197;-79
2021/08/04 14:03:53;;;;;;;6.27;4.43;;;;;;;;;;5054223;28;20183;-79
2021/08/04 14:06:19;;;;;;;4.97;4.47;;;;;;;;;;5054536;28;20295;-79
2021/08/04 14:08:46;;;;;;;4.50;4.10;;;;;;;;;;5055626;28;20184;-79
2021/08/04 14:11:12;;;;;;;4.50;4.13;;;;;;;;;;5052395;28;20219;-79
2021/08/04 14:13:38;;;;;;;5.03;4.40;;;;;;;;;;5071616;28;20200;-80
2021/08/04 14:16:05;;;;;;;4.83;4.33;;;;;;;;;;5054251;28;20260;-79
2021/08/04 14:18:31;;;;;;;14.00;3.80;;;;;;;;;;5053775;28;20271;-81
2021/08/04 14:20:57;;;;;;;4.77;4.27;;;;;;;;;;5052825;28;20215;-81
2021/08/04 14:23:23;;;;;;;4.40;3.43;;;;;;;;;;5053740;28;20180;-81
2021/08/04 14:25:49;;;;;;;3.50;3.20;;;;;;;;;;5056126;28;20214;-81
2021/08/04 14:28:15;;;;;;;5.47;3.57;;;;;;;;;;5073583;28;20173;-80
2021/08/04 14:30:41;;;;;;;3.87;3.30;;;;;;;;;;5056692;28;20187;-81
2021/08/04 14:33:07;;;;;;;3.70;3.40;;;;;;;;;;5074139;28;20482;-80
2021/08/04 14:35:33;;;;;;;4.10;3.70;;;;;;;;;;5055453;28;20212;-81
2021/08/04 14:37:59;;;;;;;4.47;4.07;;;;;;;;;;5056355;28;20558;-80
2021/08/04 14:40:25;;;;;;;4.33;3.43;;;;;;;;;;5055679;28;20181;-80
2021/08/04 14:42:51;;;;;;;4.73;3.43;;;;;;;;;;5057161;28;20225;-81
2021/08/04 14:45:17;;;;;;;4.03;3.43;;;;;;;;;;5078401;28;20183;-81
2021/08/04 14:47:43;;;;;;;3.77;3.47;;;;;;;;;;5060275;28;20216;-81